Time;durP1;ratioP1;P1;durP2;ratioP2;P2;SDS_P1;SDS_P2;PMS_P1;PMS_P2;Temp;Humidity;BMP_temperature;BMP_pressure;BME280_temperature;BME280_humidity;BME280_pressure;Samples;Min_cycle;Max_cycle;Signal;HPM_P1;HPM_P2
2023/04/18 00:00:45;;;;;;;4.25;3.17;;;;;;;10.27;82.39;98949.44;4966428;28;20037;-89
2023/04/18 00:03:14;;;;;;;4.82;3.03;;;;;;;10.25;82.27;98944.34;4968600;28;20156;-89
2023/04/18 00:05:40;;;;;;;3.78;2.97;;;;;;;10.20;82.61;98952.44;4968191;28;20412;-89
2023/04/18 00:08:05;;;;;;;4.80;3.33;;;;;;;10.25;82.76;98956.97;4967841;28;20041;-89
2023/04/18 00:10:31;;;;;;;5.63;3.25;;;;;;;10.19;83.31;98955.41;4966854;28;20045;-89
2023/04/18 00:12:57;;;;;;;4.03;3.35;;;;;;;10.28;82.34;98953.75;4983067;28;20048;-90
2023/04/18 00:15:22;;;;;;;5.70;2.95;;;;;;;10.27;81.51;98949.44;4966587;28;20025;-89
2023/04/18 00:17:48;;;;;;;4.75;2.92;;;;;;;10.24;81.59;98947.31;4984279;28;20060;-89
2023/04/18 00:20:13;;;;;;;4.30;3.28;;;;;;;10.27;81.09;98954.81;4966129;28;20033;-89
2023/04/18 00:22:43;;;;;;;3.92;2.72;;;;;;;10.31;81.33;98953.22;4967057;28;20492;-89
2023/04/18 00:25:15;;;;;;;3.35;2.75;;;;;;;10.21;81.20;98954.06;4968069;28;20034;-89
2023/04/18 00:27:40;;;;;;;3.05;2.22;;;;;;;10.12;82.42;98947.63;4965089;28;20148;-89
2023/04/18 00:30:07;;;;;;;5.63;3.88;;;;;;;10.12;82.10;98953.81;4966580;28;20125;-89
2023/04/18 00:32:32;;;;;;;6.15;2.95;;;;;;;10.08;82.05;98938.50;4964719;28;20046;-89
2023/04/18 00:34:58;;;;;;;4.15;3.05;;;;;;;9.99;82.47;98930.19;4966263;28;20018;-90
2023/04/18 00:37:23;;;;;;;3.28;2.78;;;;;;;10.04;82.48;98938.28;4966546;28;20052;-89
2023/04/18 00:39:52;;;;;;;4.03;2.88;;;;;;;9.94;82.61;98918.66;4981628;28;20034;-89
2023/04/18 00:42:18;;;;;;;3.65;2.90;;;;;;;9.93;82.44;98928.63;4966275;28;20116;-90
2023/04/18 00:44:44;;;;;;;3.63;3.25;;;;;;;10.00;82.54;98928.31;4966600;28;20041;-89
2023/04/18 00:47:09;;;;;;;4.85;3.28;;;;;;;9.99;82.01;98935.59;4966035;28;20034;-89
2023/04/18 00:49:35;;;;;;;3.38;2.63;;;;;;;10.09;82.03;98945.50;4987591;28;20056;-89
2023/04/18 00:52:00;;;;;;;4.97;2.88;;;;;;;10.00;81.71;98937.22;4966323;28;20136;-89
2023/04/18 00:54:26;;;;;;;3.70;3.05;;;;;;;9.94;81.77;98930.25;4965587;28;20038;-90
2023/04/18 00:56:51;;;;;;;4.75;3.03;;;;;;;9.90;81.21;98927.28;4965701;28;20096;-89
2023/04/18 00:59:17;;;;;;;4.70;3.15;;;;;;;9.89;81.97;98931.03;4982358;28;20038;-89
2023/04/18 01:01:43;;;;;;;2.78;2.40;;;;;;;9.80;82.02;98931.91;4965937;28;20500;-89
2023/04/18 01:04:09;;;;;;;4.68;3.10;;;;;;;9.75;82.03;98929.22;4966333;28;20117;-90
2023/04/18 01:06:35;;;;;;;3.78;2.78;;;;;;;9.84;81.86;98933.75;4966179;28;20024;-89
2023/04/18 01:09:01;;;;;;;2.70;2.33;;;;;;;9.81;81.68;98934.28;4965978;28;20525;-89
2023/04/18 01:11:26;;;;;;;4.20;2.40;;;;;;;9.78;81.50;98939.44;4964451;28;20193;-89
2023/04/18 01:14:02;;;;;;;3.78;2.40;;;;;;;9.66;81.93;98931.66;4965224;28;20060;-89
2023/04/18 01:16:28;;;;;;;2.95;2.30;;;;;;;9.60;81.96;98938.94;4965990;28;20022;-89
2023/04/18 01:18:55;;;;;;;3.28;2.22;;;;;;;9.54;81.71;98929.25;4964934;28;20930;-89
2023/04/18 01:21:21;;;;;;;2.30;1.80;;;;;;;9.55;81.83;98936.25;4964998;28;20038;-89
2023/04/18 01:23:50;;;;;;;2.78;2.17;;;;;;;9.52;81.68;98939.47;4965576;28;20041;-88
2023/04/18 01:26:15;;;;;;;3.33;2.15;;;;;;;9.46;82.57;98935.19;4964880;28;20041;-89
2023/04/18 01:28:41;;;;;;;3.65;2.60;;;;;;;9.49;82.14;98938.16;4964637;28;20061;-89
2023/04/18 01:31:06;;;;;;;3.20;2.50;;;;;;;9.45;82.12;98938.97;4964182;28;20049;-89
2023/04/18 01:33:32;;;;;;;4.05;2.50;;;;;;;9.46;82.29;98937.88;4965035;28;20042;-90
2023/04/18 01:35:57;;;;;;;4.05;2.75;;;;;;;9.34;82.90;98915.88;4965025;28;20068;-89
2023/04/18 01:38:22;;;;;;;3.88;2.45;;;;;;;9.34;81.84;98914.00;4965336;28;20484;-89
2023/04/18 01:40:48;;;;;;;4.65;2.67;;;;;;;9.41;82.35;98930.63;4965201;28;20026;-89
2023/04/18 01:43:14;;;;;;;3.80;2.55;;;;;;;9.34;82.39;98924.75;4966126;28;20033;-89
2023/04/18 01:45:39;;;;;;;5.88;2.50;;;;;;;9.38;82.05;98920.44;4964328;28;20037;-89
2023/04/18 01:48:05;;;;;;;4.85;3.20;;;;;;;9.32;82.05;98916.16;4963826;28;20038;-89
2023/04/18 01:50:30;;;;;;;4.57;2.47;;;;;;;9.28;82.43;98913.19;4968658;28;20072;-89
2023/04/18 01:52:56;;;;;;;3.53;2.58;;;;;;;9.35;82.65;98910.22;4966976;28;20073;-89
2023/04/18 01:55:21;;;;;;;8.15;3.10;;;;;;;9.33;82.46;98915.06;4965471;28;20065;-90
2023/04/18 01:57:47;;;;;;;4.40;2.97;;;;;;;9.34;81.58;98905.94;4966839;28;20061;-89
2023/04/18 02:00:15;;;;;;;4.70;2.97;;;;;;;9.32;81.71;98913.47;4966055;28;20037;-89
2023/04/18 02:02:40;;;;;;;3.55;2.83;;;;;;;9.29;81.74;98916.69;4967279;28;20193;-89
2023/04/18 02:05:06;;;;;;;4.28;3.00;;;;;;;9.36;81.28;98919.09;4964276;28;20457;-89
2023/04/18 02:07:32;;;;;;;5.38;3.97;;;;;;;9.18;82.05;98928.53;4965779;28;20496;-89
2023/04/18 02:09:57;;;;;;;5.03;3.88;;;;;;;9.28;81.95;98931.22;4964245;28;20037;-89
2023/04/18 02:12:23;;;;;;;4.60;3.38;;;;;;;9.02;82.39;98911.63;4966742;28;20030;-89
2023/04/18 02:14:51;;;;;;;4.45;3.50;;;;;;;9.11;82.56;98926.13;4964713;28;20048;-89
2023/04/18 02:17:16;;;;;;;5.65;3.60;;;;;;;9.05;82.79;98917.25;4964969;28;20399;-89
2023/04/18 02:19:42;;;;;;;4.90;3.30;;;;;;;9.10;82.47;98922.59;4964325;28;20100;-90
2023/04/18 02:22:07;;;;;;;4.38;3.13;;;;;;;9.14;82.22;98935.50;4964936;28;20041;-89
2023/04/18 02:24:32;;;;;;;5.20;3.45;;;;;;;9.05;82.80;98922.63;4965032;28;20561;-89
2023/04/18 02:26:58;;;;;;;6.25;3.97;;;;;;;9.12;82.64;98943.84;4965691;28;20080;-89
2023/04/18 02:29:26;;;;;;;7.30;3.50;;;;;;;9.09;82.80;98939.81;4965292;28;20092;-89
2023/04/18 02:31:52;;;;;;;6.85;4.00;;;;;;;9.14;82.40;98943.56;4965398;28;20010;-89
2023/04/18 02:34:17;;;;;;;5.60;3.80;;;;;;;9.13;81.89;98941.94;4965487;28;20040;-89
2023/04/18 02:36:43;;;;;;;4.97;3.78;;;;;;;9.07;82.21;98944.66;4963892;28;20042;-89
2023/04/18 02:39:08;;;;;;;6.45;4.13;;;;;;;9.15;81.92;98951.38;4964453;28;20034;-89
2023/04/18 02:41:36;;;;;;;5.80;3.78;;;;;;;8.96;82.32;98945.72;4963920;28;20045;-89
2023/04/18 02:44:01;;;;;;;4.10;3.28;;;;;;;9.06;82.19;98952.97;4965096;28;20030;-89
2023/04/18 02:46:27;;;;;;;6.35;4.13;;;;;;;9.06;81.91;98939.53;4963969;28;20488;-89
2023/04/18 02:48:52;;;;;;;7.47;4.05;;;;;;;9.09;82.01;98950.56;4964559;28;20045;-89
2023/04/18 02:51:18;;;;;;;7.28;4.50;;;;;;;9.03;82.02;98950.84;4965276;28;20492;-89
2023/04/18 02:53:44;;;;;;;9.80;4.10;;;;;;;8.98;82.33;98959.66;4967007;28;20033;-89
2023/04/18 02:56:10;;;;;;;5.30;3.75;;;;;;;8.90;82.70;98944.09;4967817;28;20044;-89
2023/04/18 02:58:36;;;;;;;8.40;4.13;;;;;;;8.96;82.38;98961.81;4970032;28;20484;-89
2023/04/18 03:01:01;;;;;;;6.20;4.03;;;;;;;8.81;83.14;98946.50;4969005;28;20034;-87
2023/04/18 03:03:27;;;;;;;6.10;3.83;;;;;;;8.74;82.89;98943.28;4968680;28;20077;-87
2023/04/18 03:05:52;;;;;;;6.68;4.25;;;;;;;8.85;82.72;98955.63;4968279;28;20049;-87
2023/04/18 03:08:18;;;;;;;5.85;3.88;;;;;;;8.76;83.24;98951.06;4968283;28;20030;-87
2023/04/18 03:10:43;;;;;;;6.82;4.30;;;;;;;8.74;83.47;98956.72;4969192;28;20034;-89
2023/04/18 03:13:09;;;;;;;6.25;4.20;;;;;;;8.86;82.76;98959.94;4969174;28;20038;-87
2023/04/18 03:15:34;;;;;;;8.18;4.80;;;;;;;8.77;82.69;98958.06;4966249;28;20044;-87
2023/04/18 03:17:59;;;;;;;7.50;4.13;;;;;;;8.75;83.29;98963.69;4968176;28;20041;-87
2023/04/18 03:20:25;;;;;;;5.75;4.00;;;;;;;8.78;83.61;98981.94;4968194;28;20038;-88
2023/04/18 03:22:53;;;;;;;9.82;4.25;;;;;;;8.81;82.54;98959.13;4968220;28;20026;-88
2023/04/18 03:25:18;;;;;;;8.25;4.93;;;;;;;8.83;82.68;98967.72;4984085;28;20109;-87
2023/04/18 03:27:44;;;;;;;5.30;3.97;;;;;;;8.75;83.21;98976.31;4966925;28;20046;-87
2023/04/18 03:30:10;;;;;;;6.18;4.45;;;;;;;8.75;83.51;98971.72;4986146;28;20025;-90
2023/04/18 03:32:37;;;;;;;6.35;4.45;;;;;;;8.75;83.11;98974.41;4967984;28;20034;-88
2023/04/18 03:35:03;;;;;;;9.18;4.43;;;;;;;8.78;83.04;98968.53;4968094;28;20030;-88
2023/04/18 03:37:29;;;;;;;7.97;4.25;;;;;;;8.80;82.55;98973.59;4965155;28;20092;-89
2023/04/18 03:39:54;;;;;;;6.68;4.53;;;;;;;8.90;82.42;98979.00;4966654;28;20042;-88
2023/04/18 03:42:20;;;;;;;5.53;4.30;;;;;;;8.95;82.60;98986.28;4967285;28;20140;-88
2023/04/18 03:44:46;;;;;;;5.25;4.28;;;;;;;8.96;82.62;98995.94;4999501;28;20033;-88
2023/04/18 03:47:13;;;;;;;7.80;4.78;;;;;;;9.06;82.07;98998.63;4967534;28;20467;-88
2023/04/18 03:49:39;;;;;;;7.40;4.53;;;;;;;9.11;82.19;99012.06;5000095;28;20045;-88
2023/04/18 03:52:04;;;;;;;5.43;4.40;;;;;;;9.15;81.83;99004.25;4983636;28;20034;-88
2023/04/18 03:54:30;;;;;;;8.25;4.47;;;;;;;9.10;81.67;98994.31;4984127;28;20073;-88
2023/04/18 03:56:58;;;;;;;8.93;5.22;;;;;;;9.03;82.02;98999.16;4966429;28;20037;-88
2023/04/18 03:59:23;;;;;;;9.23;4.88;;;;;;;9.13;81.77;99006.41;4984343;28;20595;-89
2023/04/18 04:01:49;;;;;;;6.53;4.82;;;;;;;9.20;81.31;99010.44;4967078;28;20050;-88
2023/04/18 04:04:15;;;;;;;8.73;4.85;;;;;;;9.20;81.63;98997.03;4967191;28;20037;-87
2023/04/18 04:06:40;;;;;;;10.55;6.13;;;;;;;9.27;81.54;99010.19;4967305;28;20037;-87
2023/04/18 04:09:06;;;;;;;10.05;4.95;;;;;;;9.29;81.45;99002.66;4983599;28;20380;-90
2023/04/18 04:11:31;;;;;;;7.05;4.40;;;;;;;9.55;79.42;99019.59;4978770;28;20037;-89
2023/04/18 04:13:57;;;;;;;9.65;5.57;;;;;;;9.57;80.21;99017.44;4967263;28;20574;-87
2023/04/18 04:16:22;;;;;;;7.72;5.95;;;;;;;9.54;80.30;99009.91;4983447;28;20037;-88
2023/04/18 04:18:48;;;;;;;8.85;5.32;;;;;;;9.61;79.90;99004.25;4967730;28;20045;-88
2023/04/18 04:21:13;;;;;;;12.70;6.20;;;;;;;9.63;80.11;99004.78;4967842;28;20072;-89
2023/04/18 04:23:41;;;;;;;7.65;5.25;;;;;;;9.85;79.62;99016.03;4967045;28;20033;-87
2023/04/18 04:26:09;;;;;;;8.98;5.50;;;;;;;9.79;78.72;98975.97;4970751;28;20088;-87
2023/04/18 04:28:35;;;;;;;7.50;4.57;;;;;;;10.14;77.54;99011.94;4967686;28;20049;-88
2023/04/18 04:31:00;;;;;;;11.40;5.18;;;;;;;10.10;77.34;99000.91;4966515;28;20045;-87
2023/04/18 04:33:32;;;;;;;8.75;5.10;;;;;;;10.25;77.13;99019.69;4982906;28;20041;-89
2023/04/18 04:35:57;;;;;;;6.45;4.85;;;;;;;10.27;76.56;99009.47;4998306;28;20041;-87
2023/04/18 04:38:23;;;;;;;8.50;4.60;;;;;;;10.30;76.17;99006.25;4983176;28;20030;-88
2023/04/18 04:40:49;;;;;;;8.07;5.75;;;;;;;10.37;76.46;99013.22;4983400;28;20506;-88
2023/04/18 04:43:15;;;;;;;8.45;4.80;;;;;;;10.34;76.58;98998.44;4983653;28;20032;-88
2023/04/18 04:45:42;;;;;;;10.93;7.53;;;;;;;10.37;77.19;99014.00;4983348;28;20045;-88
2023/04/18 04:48:08;;;;;;;9.55;5.28;;;;;;;9.98;78.66;99003.91;4984456;28;20113;-88
2023/04/18 04:50:35;;;;;;;9.02;4.85;;;;;;;10.14;78.19;99028.06;4985482;28;20034;-88
2023/04/18 04:53:00;;;;;;;10.93;5.20;;;;;;;10.18;78.46;99024.56;4984389;28;20041;-87
2023/04/18 04:55:26;;;;;;;7.80;6.30;;;;;;;10.45;78.51;99045.72;4966700;28;20037;-88
2023/04/18 04:57:54;;;;;;;6.82;4.57;;;;;;;10.23;78.33;99024.53;4966550;28;20038;-88
2023/04/18 05:00:21;;;;;;;10.70;6.90;;;;;;;10.28;78.46;99039.88;4968443;28;20045;-88
2023/04/18 05:02:56;;;;;;;8.90;5.35;;;;;;;10.41;77.10;99020.44;4967121;28;20030;-94
2023/04/18 05:06:01;;;;;;;7.72;5.30;;;;;;;10.90;76.12;99054.69;4971805;28;20034;-96
2023/04/18 05:09:00;;;;;;;;;;;;;;;;;;;;;
2023/04/18 05:14:40;;;;;;;8.68;5.60;;;;;;;10.66;75.09;99045.66;5010632;28;20045;-96
2023/04/18 05:17:07;;;;;;;5.57;4.43;;;;;;;10.82;76.40;99052.56;4984428;28;20428;-95
2023/04/18 05:19:35;;;;;;;8.27;4.75;;;;;;;10.86;75.21;99045.53;4991630;28;20042;-96
2023/04/18 05:22:00;;;;;;;6.90;4.50;;;;;;;10.92;75.17;99044.44;4992291;28;20105;-96
2023/04/18 05:24:27;;;;;;;7.25;4.90;;;;;;;10.92;74.12;99043.63;4980430;28;20029;-96
2023/04/18 05:34:27;;;;;;;6.53;4.53;;;;;;;11.59;73.87;99070.09;5062264;23;20117;-96
2023/04/18 05:40:36;;;;;;;11.70;5.40;;;;;;;11.96;72.82;99084.91;5500719;23;19921;-94
2023/04/18 05:43:23;;;;;;;9.80;5.15;;;;;;;11.98;71.09;99044.97;5002319;28;20097;-96
2023/04/18 05:46:08;;;;;;;7.68;5.03;;;;;;;12.10;71.37;99056.19;4991963;28;20021;-95
2023/04/18 05:48:36;;;;;;;10.63;4.43;;;;;;;12.42;71.42;99082.53;5005652;28;20034;-95
2023/04/18 05:51:04;;;;;;;9.00;6.97;;;;;;;12.37;71.10;99052.06;5189848;23;20252;-95
2023/04/18 05:53:30;;;;;;;12.82;6.05;;;;;;;12.36;70.34;99048.59;4960244;28;20046;-95
2023/04/18 05:55:57;;;;;;;7.18;5.13;;;;;;;12.49;69.90;99061.41;4977455;28;20053;-96
2023/04/18 05:58:23;;;;;;;12.77;5.68;;;;;;;12.45;70.63;99070.34;4978559;28;20050;-96
2023/04/18 06:00:49;;;;;;;10.68;5.50;;;;;;;12.38;70.31;99070.69;4994179;28;20041;-95
2023/04/18 06:03:25;;;;;;;9.55;6.10;;;;;;;12.35;70.45;99065.88;4990616;28;20041;-92
2023/04/18 06:05:50;;;;;;;6.50;4.47;;;;;;;12.62;70.17;99081.50;4972796;28;20054;-93
2023/04/18 06:08:16;;;;;;;14.07;5.78;;;;;;;12.56;68.94;99052.16;4987917;28;20034;-89
2023/04/18 06:10:42;;;;;;;10.35;5.53;;;;;;;12.66;69.10;99052.81;4983290;28;20042;-90
2023/04/18 06:13:13;;;;;;;8.70;4.93;;;;;;;12.65;69.99;99089.00;4982993;28;20099;-93
2023/04/18 06:16:14;;;;;;;8.40;4.80;;;;;;;12.36;70.81;99086.38;4968998;28;20031;-90
2023/04/18 06:18:39;;;;;;;15.10;5.20;;;;;;;12.50;69.81;99067.59;4961802;28;20066;-91
2023/04/18 06:21:05;;;;;;;6.93;4.60;;;;;;;12.51;69.49;99072.72;4956872;28;20037;-92
2023/04/18 06:23:31;;;;;;;10.45;5.80;;;;;;;12.60;69.48;99085.59;4975653;28;20058;-86
2023/04/18 06:25:57;;;;;;;5.55;4.20;;;;;;;12.64;68.56;99046.91;4962346;28;20041;-88
2023/04/18 06:28:23;;;;;;;10.18;5.00;;;;;;;12.79;68.35;99058.59;4962219;28;20129;-89
2023/04/18 06:31:16;;;;;;;11.93;5.78;;;;;;;13.07;68.35;99076.59;4979128;28;20056;-93
2023/04/18 06:33:41;;;;;;;8.73;5.65;;;;;;;12.84;68.32;99070.13;5000974;28;20038;-96
2023/04/18 06:36:07;;;;;;;13.05;5.03;;;;;;;13.08;67.67;99099.81;4978801;28;20010;-94
2023/04/18 06:38:42;;;;;;;11.80;3.90;;;;;;;13.06;66.28;99061.44;4980304;28;20042;-93
2023/04/18 06:41:08;;;;;;;9.88;5.45;;;;;;;13.36;66.65;99093.75;4988794;28;20088;-96
2023/04/18 06:43:35;;;;;;;7.72;4.72;;;;;;;13.35;65.35;99076.75;4979296;28;20046;-94
2023/04/18 06:46:03;;;;;;;7.25;3.30;;;;;;;13.48;64.32;99086.81;4973902;28;20484;-93
2023/04/18 06:48:29;;;;;;;6.05;4.10;;;;;;;13.51;64.20;99088.13;4991914;28;20038;-93
2023/04/18 06:50:55;;;;;;;4.93;3.40;;;;;;;13.62;63.23;99099.59;4975285;28;20053;-93
2023/04/18 06:53:52;;;;;;;10.70;4.93;;;;;;;13.63;64.63;99103.88;4983032;28;20047;-96
2023/04/18 06:56:21;;;;;;;9.63;4.55;;;;;;;13.43;64.52;99086.91;4994886;28;20034;-95
2023/04/18 06:58:47;;;;;;;9.27;4.80;;;;;;;13.17;66.38;99101.84;4989697;28;20058;-94
2023/04/18 07:01:13;;;;;;;5.68;4.10;;;;;;;13.30;64.64;99093.03;4982954;28;20129;-94
2023/04/18 07:03:38;;;;;;;5.22;3.53;;;;;;;13.20;65.33;99104.78;4984627;28;20102;-94
2023/04/18 07:06:04;;;;;;;4.85;3.63;;;;;;;13.31;64.55;99102.75;4976598;28;20035;-95
2023/04/18 07:08:34;;;;;;;8.55;4.53;;;;;;;13.32;65.08;99094.38;4979480;28;20497;-93
2023/04/18 07:11:22;;;;;;;6.95;4.22;;;;;;;13.29;65.09;99123.88;4976343;28;20073;-93
2023/04/18 07:13:49;;;;;;;10.32;5.63;;;;;;;13.06;66.90;99125.53;4988145;28;20058;-96
2023/04/18 07:16:17;;;;;;;23.75;16.67;;;;;;;12.96;66.11;99120.25;4979596;28;20055;-93
2023/04/18 07:18:44;;;;;;;11.82;6.45;;;;;;;13.07;67.21;99119.00;4985978;28;20048;-96
2023/04/18 07:21:09;;;;;;;9.25;4.90;;;;;;;13.13;67.01;99115.94;4986631;28;20110;-95
2023/04/18 07:23:38;;;;;;;7.68;4.50;;;;;;;12.70;67.28;99080.03;4990747;28;20065;-94
2023/04/18 07:26:08;;;;;;;5.97;4.28;;;;;;;12.96;67.03;99096.72;4990382;28;20033;-95
2023/04/18 07:28:37;;;;;;;8.60;4.30;;;;;;;13.03;66.80;99104.47;4991202;28;20038;-96
2023/04/18 07:31:03;;;;;;;9.50;4.35;;;;;;;13.19;66.01;99121.28;4992055;28;20073;-96
2023/04/18 07:33:32;;;;;;;5.65;4.40;;;;;;;12.94;66.43;99094.31;4992239;28;20077;-95
2023/04/18 07:36:00;;;;;;;6.03;3.75;;;;;;;13.02;66.10;99095.56;4993936;28;20053;-95
2023/04/18 07:38:29;;;;;;;6.45;4.40;;;;;;;13.11;65.45;99096.53;4973099;28;20049;-94
2023/04/18 07:40:58;;;;;;;4.75;3.47;;;;;;;13.17;64.56;99105.34;4979395;28;20054;-95
2023/04/18 07:43:25;;;;;;;7.95;4.03;;;;;;;13.35;64.14;99098.38;4993857;28;20035;-95
2023/04/18 07:45:51;;;;;;;5.57;3.83;;;;;;;13.31;65.19;99113.56;4975690;28;20053;-91
2023/04/18 07:48:17;;;;;;;5.35;3.60;;;;;;;13.46;64.37;99116.03;4982958;28;20042;-92
2023/04/18 07:50:43;;;;;;;5.38;3.28;;;;;;;13.67;62.91;99124.66;4978542;28;20048;-93
2023/04/18 07:53:18;;;;;;;5.85;3.50;;;;;;;13.75;63.23;99121.25;4979778;28;20117;-93
2023/04/18 07:56:03;;;;;;;4.90;3.60;;;;;;;13.57;63.68;99111.28;4961543;28;20035;-95
2023/04/18 07:58:28;;;;;;;6.03;3.80;;;;;;;13.56;63.89;99115.09;4966373;28;20046;-93
2023/04/18 08:00:54;;;;;;;4.05;3.30;;;;;;;13.57;64.00;99115.88;4979686;28;20102;-93
2023/04/18 08:03:21;;;;;;;7.60;4.18;;;;;;;13.87;62.87;99120.00;4967367;28;20038;-93
2023/04/18 08:05:47;;;;;;;9.27;3.17;;;;;;;14.01;61.48;99128.97;4984840;28;20038;-94
2023/04/18 08:08:13;;;;;;;6.55;3.55;;;;;;;13.86;62.95;99124.63;4991717;28;20042;-95
2023/04/18 08:10:44;;;;;;;3.95;2.83;;;;;;;14.09;60.83;99113.94;4986503;28;20037;-96
2023/04/18 08:13:12;;;;;;;6.13;3.17;;;;;;;14.20;60.45;99112.66;4990276;28;20465;-96
2023/04/18 08:15:58;;;;;;;7.15;3.20;;;;;;;14.35;60.37;99125.91;4987953;28;20057;-95
2023/04/18 08:18:25;;;;;;;5.57;3.40;;;;;;;14.45;59.62;99134.97;4982235;28;20062;-95
2023/04/18 08:20:51;;;;;;;6.40;3.13;;;;;;;14.44;59.55;99104.34;4970596;28;20034;-95
2023/04/18 08:24:02;;;;;;;4.35;2.88;;;;;;;14.59;58.77;99124.16;4971908;28;20042;-93
2023/04/18 08:26:26;;;;;;;6.53;3.75;;;;;;;14.61;60.15;99136.31;4963384;28;20102;-93
2023/04/18 08:28:52;;;;;;;5.63;3.80;;;;;;;14.69;60.84;99143.75;4933668;28;20133;-95
2023/04/18 08:31:17;;;;;;;6.43;3.42;;;;;;;14.45;60.76;99132.25;4924822;28;20042;-95
2023/04/18 08:33:43;;;;;;;6.28;4.00;;;;;;;14.39;60.33;99120.72;4933905;28;20066;-93
2023/04/18 08:36:08;;;;;;;4.60;3.55;;;;;;;14.30;60.83;99155.81;4952867;28;20101;-94
2023/04/18 08:39:20;;;;;;;7.22;4.25;;;;;;;14.36;61.47;99151.13;4936823;28;20039;-94
2023/04/18 08:42:10;;;;;;;9.40;4.40;;;;;;;14.37;62.42;99158.13;4912468;29;20095;-92
2023/04/18 08:44:39;;;;;;;5.82;4.20;;;;;;;14.24;61.84;99151.59;4907937;29;20128;-92
2023/04/18 08:47:43;;;;;;;8.30;4.18;;;;;;;14.12;62.47;99153.97;4949135;29;20035;-93
2023/04/18 08:50:16;;;;;;;5.45;3.72;;;;;;;14.07;62.45;99129.66;4946781;29;20105;-94
2023/04/18 08:52:44;;;;;;;4.70;3.45;;;;;;;14.06;61.98;99139.72;4930156;29;20114;-95
2023/04/18 08:55:10;;;;;;;11.13;5.82;;;;;;;14.17;62.22;99143.03;4915317;29;20039;-95
2023/04/18 08:57:35;;;;;;;7.55;4.20;;;;;;;14.29;61.20;99140.66;4932095;28;20105;-94
2023/04/18 09:00:01;;;;;;;7.85;6.53;;;;;;;14.25;61.89;99141.56;4948841;28;20034;-94
2023/04/18 09:02:46;;;;;;;6.22;4.13;;;;;;;14.61;61.38;99157.16;4950870;28;20035;-94
2023/04/18 09:05:18;;;;;;;8.02;3.50;;;;;;;14.81;59.60;99139.72;4953841;28;20035;-93
2023/04/18 09:10:35;;;;;;;4.85;3.72;;;;;;;15.10;59.10;99153.72;4943413;29;20117;-92
2023/04/18 09:13:02;;;;;;;6.68;4.93;;;;;;;15.05;59.10;99128.66;4912068;29;20036;-93
2023/04/18 09:15:35;;;;;;;5.32;3.90;;;;;;;15.11;58.74;99117.38;4930443;29;20039;-93
2023/04/18 09:18:01;;;;;;;5.68;3.55;;;;;;;15.07;58.67;99113.69;4963039;28;20035;-96
2023/04/18 09:20:40;;;;;;;4.57;3.65;;;;;;;15.14;57.90;99114.06;4947020;29;20050;-93
2023/04/18 09:23:09;;;;;;;6.40;3.83;;;;;;;15.14;57.74;99116.75;4962066;28;20051;-96
2023/04/18 09:25:41;;;;;;;5.95;3.92;;;;;;;15.53;57.32;99142.47;4950118;29;20035;-92
2023/04/18 09:29:00;;;;;;;9.35;3.53;;;;;;;15.31;58.99;99150.59;4969562;28;20126;-94
2023/04/18 09:31:36;;;;;;;9.73;4.25;;;;;;;15.04;59.31;99127.03;4926003;29;20399;-94
2023/04/18 09:34:03;;;;;;;6.68;3.75;;;;;;;15.10;60.07;99142.88;4934723;29;20039;-94
2023/04/18 09:36:31;;;;;;;5.22;3.35;;;;;;;15.10;58.52;99132.03;4928186;29;20091;-93
2023/04/18 09:38:56;;;;;;;9.30;4.13;;;;;;;14.69;59.96;99132.06;4916194;29;20123;-91
2023/04/18 09:41:29;;;;;;;5.68;3.40;;;;;;;14.45;60.58;99107.88;4962949;28;20038;-95
2023/04/18 09:44:21;;;;;;;;;;;;;;;;;;;;;
2023/04/18 09:46:57;;;;;;;7.03;3.63;;;;;;;15.07;59.29;99129.94;4984107;28;20034;-96
2023/04/18 09:49:23;;;;;;;7.28;4.75;;;;;;;15.11;58.89;99125.53;4969357;28;20073;-92
2023/04/18 09:51:52;;;;;;;5.28;4.03;;;;;;;15.07;59.36;99138.09;4983955;28;20054;-95
2023/04/18 09:54:19;;;;;;;6.30;4.47;;;;;;;14.93;59.33;99126.44;4965519;28;20070;-88
2023/04/18 09:56:45;;;;;;;7.65;3.35;;;;;;;15.09;58.72;99126.94;4979531;28;20567;-89
2023/04/18 09:59:11;;;;;;;5.70;3.33;;;;;;;15.09;58.39;99124.22;4980770;28;20038;-89
2023/04/18 10:01:37;;;;;;;7.75;3.20;;;;;;;14.94;58.47;99115.31;4965126;28;20085;-90
2023/04/18 10:04:05;;;;;;;4.35;3.00;;;;;;;14.66;59.51;99103.69;4958805;28;20129;-91
2023/04/18 10:06:40;;;;;;;8.60;6.05;;;;;;;15.05;58.23;99101.53;4966614;28;20037;-89
2023/04/18 10:09:25;;;;;;;4.82;3.20;;;;;;;15.22;58.87;99098.97;4972055;28;20038;-92
2023/04/18 10:15:16;;;;;;;7.03;4.43;;;;;;;15.25;57.53;99111.13;4971802;28;20034;-94
2023/04/18 10:18:08;;;;;;;;;;;;;;;;;;;;;
2023/04/18 10:20:40;;;;;;;4.35;2.90;;;;;;;15.49;56.55;99114.34;4993050;28;20082;-96
2023/04/18 10:23:30;;;;;;;6.63;3.35;;;;;;;15.63;56.63;99133.31;4978963;28;20098;-94
2023/04/18 10:25:57;;;;;;;4.90;2.80;;;;;;;15.35;57.11;99122.53;5005528;28;20094;-95
2023/04/18 10:28:28;;;;;;;4.80;3.05;;;;;;;15.31;57.86;99126.97;4980311;28;20038;-94
2023/04/18 10:31:01;;;;;;;5.75;3.28;;;;;;;15.26;58.00;99121.66;4962882;28;20045;-94
2023/04/18 10:33:32;;;;;;;4.88;3.05;;;;;;;15.40;58.06;99151.47;4976519;28;20505;-93
2023/04/18 10:36:13;;;;;;;6.15;3.03;;;;;;;15.44;57.29;99143.50;4986793;28;20142;-95
2023/04/18 10:38:54;;;;;;;4.72;3.72;;;;;;;15.09;58.25;99127.75;4999300;28;20061;-88
2023/04/18 10:41:26;;;;;;;4.95;3.45;;;;;;;15.22;58.25;99155.13;4963671;28;20038;-89
2023/04/18 10:44:21;;;;;;;6.20;3.65;;;;;;;15.03;58.23;99155.28;4984219;28;20037;-88
2023/04/18 10:46:52;;;;;;;5.65;3.45;;;;;;;14.91;58.83;99153.84;4967745;28;20440;-88
2023/04/18 10:49:24;;;;;;;7.13;3.58;;;;;;;14.65;59.10;99140.03;4980997;28;20038;-90
2023/04/18 10:51:52;;;;;;;5.03;3.28;;;;;;;14.66;59.41;99154.38;4974471;28;20105;-91
2023/04/18 10:54:29;;;;;;;6.88;3.88;;;;;;;14.44;59.80;99157.72;4974751;28;20497;-88
2023/04/18 10:56:56;;;;;;;5.15;3.28;;;;;;;14.37;59.93;99155.41;4983697;28;20114;-94
2023/04/18 10:59:46;;;;;;;8.05;3.67;;;;;;;14.23;60.44;99166.22;4968609;28;20026;-89
2023/04/18 11:02:42;;;;;;;8.07;3.60;;;;;;;14.30;60.53;99177.47;4954945;28;20032;-91
2023/04/18 11:05:11;;;;;;;10.80;7.00;;;;;;;14.27;59.93;99179.97;4980634;28;20493;-91
2023/04/18 11:07:47;;;;;;;6.90;3.63;;;;;;;14.38;59.82;99194.13;4958288;28;20046;-90
2023/04/18 11:10:16;;;;;;;5.18;3.70;;;;;;;14.27;60.67;99179.97;4969044;28;20049;-93
2023/04/18 11:13:07;;;;;;;4.90;2.92;;;;;;;14.45;59.85;99198.06;4961160;28;20049;-92
2023/04/18 11:15:32;;;;;;;7.15;3.58;;;;;;;14.28;60.19;99176.97;4987898;28;20093;-92
2023/04/18 11:18:07;;;;;;;4.20;3.15;;;;;;;14.42;60.24;99187.03;4985412;28;20037;-93
2023/04/18 11:20:39;;;;;;;5.32;3.55;;;;;;;14.18;60.74;99173.66;4991712;28;20053;-90
2023/04/18 11:23:44;;;;;;;4.63;3.20;;;;;;;14.07;60.89;99163.00;4972495;28;20030;-90
2023/04/18 11:26:14;;;;;;;4.47;3.33;;;;;;;14.22;60.53;99156.50;4965145;28;20034;-90
2023/04/18 11:32:23;;;;;;;4.65;3.38;;;;;;;14.07;61.22;99152.16;4967351;28;20078;-89
2023/04/18 11:34:52;;;;;;;5.00;3.30;;;;;;;13.84;61.42;99120.59;4917959;28;20066;-91
2023/04/18 11:37:18;;;;;;;7.38;4.15;;;;;;;13.84;61.91;99128.72;4966867;28;20041;-91
2023/04/18 11:39:44;;;;;;;4.38;3.60;;;;;;;13.80;63.03;99128.53;4965076;28;20114;-90
2023/04/18 11:42:18;;;;;;;4.38;3.40;;;;;;;13.68;63.56;99128.19;4949407;28;20054;-91
2023/04/18 11:44:48;;;;;;;6.97;3.75;;;;;;;13.71;64.77;99131.06;4967980;28;20461;-88
2023/04/18 11:47:27;;;;;;;7.70;4.50;;;;;;;13.58;65.55;99121.00;4970044;28;20049;-88
2023/04/18 11:50:05;;;;;;;8.27;4.22;;;;;;;13.47;66.41;99123.06;4967393;28;20509;-90
2023/04/18 11:52:38;;;;;;;4.72;3.90;;;;;;;13.45;66.29;99117.16;4963505;28;20071;-91
2023/04/18 11:55:28;;;;;;;4.78;3.78;;;;;;;13.41;66.90;99121.53;4965553;29;20049;-91
2023/04/18 11:58:09;;;;;;;8.73;5.50;;;;;;;13.45;68.57;99132.59;4953282;29;20039;-95
2023/04/18 12:00:41;;;;;;;5.53;3.85;;;;;;;13.45;67.43;99141.50;4965133;28;20054;-93
2023/04/18 12:03:27;;;;;;;10.75;4.47;;;;;;;13.31;68.35;99137.91;4988627;28;20525;-88
2023/04/18 12:06:01;;;;;;;6.32;4.25;;;;;;;13.45;68.84;99144.19;4977538;28;20047;-89
2023/04/18 12:08:37;;;;;;;;;;;;;;;;;;;;;
2023/04/18 12:11:04;;;;;;;9.02;5.00;;;;;;;13.63;69.31;99147.19;4966698;28;20413;-89
2023/04/18 12:13:31;;;;;;;9.55;4.65;;;;;;;13.80;68.57;99133.94;4958688;28;20171;-89
2023/04/18 12:15:56;;;;;;;8.75;5.63;;;;;;;13.70;69.61;99115.16;4947569;28;20039;-93
2023/04/18 12:18:23;;;;;;;10.18;5.53;;;;;;;13.84;67.63;99121.41;5003561;28;20069;-94